createdAt,value
2022-11-29T00:02:08.834Z,60.81
2022-11-29T00:04:36.310Z,59.86
2022-11-29T00:07:04.101Z,59.94
2022-11-29T00:09:30.898Z,59.61
2022-11-29T00:12:00.131Z,57.77
2022-11-29T00:14:33.880Z,56.73
2022-11-29T00:17:00.850Z,57.35
2022-11-29T00:19:28.162Z,56.91
2022-11-29T00:21:54.862Z,57.92
2022-11-29T00:24:21.392Z,58.06
2022-11-29T00:26:49.996Z,58.62
2022-11-29T00:31:49.090Z,57.51
2022-11-29T00:34:16.058Z,57.81
2022-11-29T00:36:46.594Z,60.08
2022-11-29T00:39:17.651Z,60.18
2022-11-29T00:41:45.541Z,58.73
2022-11-29T00:44:18.359Z,59.65
2022-11-29T00:46:49.578Z,58.63
2022-11-29T00:49:16.781Z,58.24
2022-11-29T00:51:43.445Z,58.00
2022-11-29T00:54:17.605Z,58.84
2022-11-29T00:56:44.069Z,56.35
2022-11-29T00:59:14.538Z,58.79
2022-11-29T01:01:43.243Z,59.72
2022-11-29T01:04:10.300Z,60.18
2022-11-29T01:06:38.267Z,58.98
2022-11-29T01:09:05.052Z,59.99
2022-11-29T01:11:33.454Z,57.88
2022-11-29T01:17:11.969Z,56.26
2022-11-29T01:19:39.024Z,57.94
2022-11-29T01:22:06.161Z,57.88
2022-11-29T01:24:33.750Z,56.64
2022-11-29T01:27:00.718Z,56.26
2022-11-29T01:29:28.982Z,56.66
2022-11-29T01:31:56.511Z,56.42
2022-11-29T01:34:24.532Z,57.96
2022-11-29T01:36:51.843Z,56.31
2022-11-29T01:39:19.192Z,56.21
2022-11-29T01:41:48.210Z,55.62
2022-11-29T01:44:16.029Z,55.52
2022-11-29T01:46:43.481Z,55.73
2022-11-29T01:49:10.277Z,55.95
2022-11-29T01:51:37.954Z,56.68
2022-11-29T01:54:05.391Z,54.81
2022-11-29T01:56:32.644Z,55.38
2022-11-29T01:59:02.516Z,55.72
2022-11-29T02:01:33.372Z,55.29
2022-11-29T02:04:00.630Z,55.04
2022-11-29T02:06:27.608Z,55.97
2022-11-29T02:08:54.412Z,57.45
2022-11-29T02:11:21.950Z,57.52
2022-11-29T02:13:52.178Z,56.84
2022-11-29T02:16:20.234Z,56.41
2022-11-29T02:18:46.984Z,58.82
2022-11-29T02:21:13.858Z,57.07
2022-11-29T02:23:40.676Z,56.89
2022-11-29T02:26:07.874Z,60.92
2022-11-29T02:28:36.328Z,58.92
2022-11-29T02:31:05.071Z,60.03
2022-11-29T02:33:31.800Z,58.41
2022-11-29T02:35:58.526Z,58.31
2022-11-29T02:38:25.415Z,58.00
2022-11-29T02:40:55.701Z,58.26
2022-11-29T02:43:24.180Z,57.27
2022-11-29T02:45:53.045Z,59.63
2022-11-29T02:48:19.976Z,60.27
2022-11-29T02:50:49.090Z,61.02
2022-11-29T02:53:16.520Z,60.46
2022-11-29T02:55:43.202Z,59.69
2022-11-29T02:58:10.702Z,60.01
2022-11-29T03:00:37.531Z,58.92
2022-11-29T03:03:07.262Z,59.80
2022-11-29T03:05:35.755Z,60.58
2022-11-29T03:08:04.193Z,60.73
2022-11-29T03:10:33.262Z,61.31
2022-11-29T03:13:00.231Z,60.56
2022-11-29T03:15:28.265Z,60.43
2022-11-29T03:17:56.806Z,60.13
2022-11-29T03:20:27.616Z,60.19
2022-11-29T03:22:56.073Z,59.60
2022-11-29T03:25:24.554Z,57.62
2022-11-29T03:27:51.463Z,56.73
2022-11-29T03:30:18.532Z,57.61
2022-11-29T03:32:47.001Z,56.08
2022-11-29T03:35:13.969Z,55.80
2022-11-29T03:37:41.499Z,56.11
2022-11-29T03:40:08.577Z,55.60
2022-11-29T03:42:36.719Z,54.31
2022-11-29T03:48:25.842Z,55.08
2022-11-29T03:50:58.526Z,56.84
2022-11-29T03:53:25.943Z,56.09
2022-11-29T03:55:52.603Z,55.17
2022-11-29T03:58:19.380Z,55.27
2022-11-29T04:00:54.061Z,54.32
2022-11-29T04:03:22.253Z,55.82
2022-11-29T04:05:56.891Z,54.84
2022-11-29T04:08:24.559Z,55.20
2022-11-29T04:10:52.021Z,55.01
2022-11-29T04:13:40.230Z,54.97
2022-11-29T04:16:26.973Z,54.81
2022-11-29T04:18:53.826Z,54.61
2022-11-29T04:21:20.748Z,55.73
2022-11-29T04:23:51.711Z,55.02
2022-11-29T04:26:20.150Z,56.82
2022-11-29T04:28:47.233Z,56.08
2022-11-29T04:31:14.909Z,57.78
2022-11-29T04:33:41.797Z,55.67
2022-11-29T04:36:10.635Z,54.55
2022-11-29T04:38:38.135Z,54.79
2022-11-29T04:41:06.886Z,54.62
2022-11-29T04:43:37.894Z,54.59
2022-11-29T04:46:04.451Z,55.56
2022-11-29T04:48:33.222Z,55.93
2022-11-29T04:51:00.153Z,55.44
2022-11-29T04:53:27.236Z,55.93
2022-11-29T04:55:54.230Z,56.20
2022-11-29T04:58:23.855Z,55.27
2022-11-29T05:00:51.216Z,57.00
2022-11-29T05:03:20.394Z,55.20
2022-11-29T05:05:48.934Z,57.28
2022-11-29T05:08:17.975Z,56.87
2022-11-29T05:10:46.565Z,55.80
2022-11-29T05:13:13.260Z,55.93
2022-11-29T05:15:42.228Z,56.97
2022-11-29T05:18:09.667Z,55.57
2022-11-29T05:20:41.296Z,55.43
2022-11-29T05:23:12.131Z,56.79
2022-11-29T05:28:22.525Z,56.72
2022-11-29T05:30:52.588Z,54.53
2022-11-29T05:33:20.804Z,55.33
2022-11-29T05:35:49.493Z,55.80
2022-11-29T05:38:16.588Z,55.79
2022-11-29T05:40:43.894Z,57.08
2022-11-29T05:43:12.558Z,56.24
2022-11-29T05:45:39.541Z,55.00
2022-11-29T05:48:06.518Z,54.74
2022-11-29T05:50:43.267Z,57.53
2022-11-29T05:53:17.255Z,58.70
2022-11-29T05:55:44.211Z,58.78
2022-11-29T05:58:11.172Z,57.31
2022-11-29T06:00:41.192Z,57.52
2022-11-29T06:03:08.949Z,58.34
2022-11-29T06:05:36.271Z,56.30
2022-11-29T06:08:12.960Z,55.82
2022-11-29T06:10:46.215Z,56.29
2022-11-29T06:13:13.335Z,58.76
2022-11-29T06:18:37.222Z,55.23
2022-11-29T06:21:06.922Z,55.20
2022-11-29T06:23:50.459Z,56.54
2022-11-29T06:26:32.574Z,57.04
2022-11-29T06:31:43.702Z,58.12
2022-11-29T06:34:13.764Z,58.15
2022-11-29T06:36:45.687Z,59.91
2022-11-29T06:39:16.597Z,58.52
2022-11-29T06:44:32.165Z,58.99
2022-11-29T06:47:00.283Z,59.24
2022-11-29T06:49:27.758Z,57.87
2022-11-29T06:51:59.019Z,57.04
2022-11-29T06:54:25.751Z,57.03
2022-11-29T06:57:03.881Z,59.83
2022-11-29T07:04:57.327Z,58.41
2022-11-29T07:12:59.909Z,60.47
2022-11-29T07:15:28.974Z,60.33
2022-11-29T07:20:58.804Z,59.43
2022-11-29T07:26:06.606Z,61.55
2022-11-29T07:28:45.434Z,60.59
2022-11-29T07:31:17.515Z,60.70
2022-11-29T07:34:13.887Z,59.61
2022-11-29T07:36:48.417Z,59.82
2022-11-29T07:39:19.564Z,59.59
2022-11-29T07:41:48.893Z,58.74
2022-11-29T07:44:21.253Z,58.82
2022-11-29T07:46:48.721Z,59.58
2022-11-29T07:49:29.232Z,57.69
2022-11-29T07:52:02.645Z,57.91
2022-11-29T07:54:30.055Z,57.60
2022-11-29T07:56:58.930Z,56.74
2022-11-29T07:59:28.036Z,55.35
2022-11-29T08:01:59.487Z,54.56
2022-11-29T08:04:28.054Z,55.37
2022-11-29T08:07:06.605Z,54.82
2022-11-29T08:09:37.528Z,54.90
2022-11-29T08:12:12.330Z,54.51
2022-11-29T08:17:57.557Z,54.00
2022-11-29T08:20:31.467Z,54.17
2022-11-29T08:22:59.982Z,54.09
2022-11-29T08:25:27.086Z,54.43
2022-11-29T08:27:54.839Z,53.63
2022-11-29T08:30:23.884Z,54.28
2022-11-29T08:32:57.640Z,53.83
2022-11-29T08:35:26.540Z,53.93
2022-11-29T08:37:53.604Z,53.48
2022-11-29T08:40:21.722Z,53.93
2022-11-29T08:42:49.377Z,55.18
2022-11-29T08:48:08.734Z,56.90
2022-11-29T08:50:39.236Z,56.09
2022-11-29T08:53:09.685Z,55.69
2022-11-29T08:55:37.610Z,55.15
2022-11-29T08:58:05.295Z,55.41
2022-11-29T09:00:32.133Z,54.92
2022-11-29T09:05:43.539Z,54.58
2022-11-29T09:08:24.937Z,54.34
2022-11-29T09:10:57.540Z,55.61
2022-11-29T09:13:39.890Z,55.54
2022-11-29T09:16:11.497Z,55.24
2022-11-29T09:18:51.268Z,55.08
2022-11-29T09:24:32.835Z,56.08
2022-11-29T09:27:21.423Z,56.50
2022-11-29T09:29:55.948Z,55.97
2022-11-29T09:32:25.013Z,54.32
2022-11-29T09:34:54.558Z,54.41
2022-11-29T09:37:32.861Z,53.03
2022-11-29T09:46:01.875Z,55.59
2022-11-29T09:48:32.831Z,54.21
2022-11-29T09:51:00.207Z,55.61
2022-11-29T09:53:30.127Z,55.05
2022-11-29T09:55:57.108Z,55.18
2022-11-29T09:58:24.355Z,55.27
2022-11-29T10:01:14.603Z,57.16
2022-11-29T10:03:39.766Z,55.88
2022-11-29T10:06:14.224Z,54.84
2022-11-29T10:08:50.338Z,53.01
2022-11-29T10:11:20.446Z,54.25
2022-11-29T10:19:49.722Z,55.75
2022-11-29T10:22:20.426Z,54.25
2022-11-29T10:24:51.028Z,53.73
2022-11-29T10:27:18.613Z,52.56
2022-11-29T10:29:49.978Z,53.88
2022-11-29T10:32:20.578Z,52.97
2022-11-29T10:34:47.625Z,53.55
2022-11-29T10:37:16.208Z,53.03
2022-11-29T10:39:43.871Z,54.25
2022-11-29T10:42:12.602Z,54.09
2022-11-29T10:44:41.371Z,57.71
2022-11-29T10:47:11.099Z,55.84
2022-11-29T10:50:01.525Z,54.04
2022-11-29T10:52:33.800Z,54.69
2022-11-29T10:55:03.658Z,54.38
2022-11-29T11:00:11.579Z,51.82
2022-11-29T11:02:40.610Z,53.83
2022-11-29T11:05:16.778Z,55.96
2022-11-29T11:07:46.344Z,54.05
2022-11-29T11:10:18.031Z,52.37
2022-11-29T11:12:48.492Z,52.05
2022-11-29T11:15:21.333Z,54.03
2022-11-29T11:17:49.489Z,54.11
2022-11-29T11:20:17.770Z,54.16
2022-11-29T11:22:47.556Z,55.98
2022-11-29T11:25:24.212Z,56.56
2022-11-29T11:30:57.769Z,54.54
2022-11-29T11:33:39.621Z,52.29
2022-11-29T11:44:45.786Z,53.19
2022-11-29T11:47:07.372Z,58.75
2022-11-29T11:49:38.237Z,58.20
2022-11-29T11:54:55.411Z,57.08
2022-11-29T11:57:26.402Z,56.07
2022-11-29T11:59:56.202Z,54.15
2022-11-29T12:02:31.110Z,55.40
2022-11-29T12:05:19.328Z,57.44
2022-11-29T12:10:39.211Z,57.00
2022-11-29T12:13:10.027Z,60.00
2022-11-29T12:15:48.344Z,57.90
2022-11-29T12:18:16.366Z,56.62
2022-11-29T12:20:45.782Z,58.29
2022-11-29T12:23:14.734Z,60.28
2022-11-29T12:25:42.897Z,59.65
2022-11-29T12:28:19.819Z,57.63
2022-11-29T12:30:50.723Z,56.51
2022-11-29T12:33:21.764Z,57.50
2022-11-29T12:35:50.761Z,59.50
2022-11-29T12:38:18.708Z,60.93
2022-11-29T12:40:45.759Z,59.34
2022-11-29T12:48:38.673Z,57.31
2022-11-29T12:57:02.571Z,56.74
2022-11-29T13:02:34.387Z,55.08
2022-11-29T13:08:12.782Z,54.61
2022-11-29T13:13:21.087Z,55.13
2022-11-29T13:15:49.876Z,53.12
2022-11-29T13:21:07.149Z,50.97
2022-11-29T13:29:07.092Z,51.81
2022-11-29T13:31:39.781Z,52.40
2022-11-29T13:34:15.328Z,52.93
2022-11-29T13:39:27.759Z,50.70
2022-11-29T13:50:14.652Z,52.72
2022-11-29T13:52:45.964Z,51.97
2022-11-29T13:58:35.330Z,50.21
2022-11-29T14:01:06.676Z,50.89
2022-11-29T14:03:43.454Z,50.39
2022-11-29T14:06:11.753Z,52.39
2022-11-29T14:14:17.422Z,53.57
2022-11-29T14:16:49.311Z,53.67
2022-11-29T14:19:26.664Z,53.62
2022-11-29T14:22:03.260Z,54.32
2022-11-29T14:24:46.792Z,54.43
2022-11-29T14:27:15.349Z,53.86
2022-11-29T14:29:53.787Z,54.32
2022-11-29T14:32:33.608Z,52.86
2022-11-29T15:06:07.461Z,55.25
2022-11-29T15:17:33.418Z,54.08
2022-11-29T15:23:19.368Z,51.57
2022-11-29T15:27:12.662Z,52.47
2022-11-29T15:38:46.578Z,53.81
2022-11-29T15:43:06.202Z,54.49
2022-11-29T15:44:25.534Z,53.51
2022-11-29T15:47:45.559Z,54.03
2022-11-29T15:49:49.127Z,53.47
2022-11-29T15:52:20.333Z,54.30
2022-11-29T15:54:47.555Z,52.89
2022-11-29T15:57:16.293Z,56.04
2022-11-29T15:59:47.683Z,56.06
2022-11-29T16:04:59.023Z,56.26
2022-11-29T16:07:30.439Z,55.98
2022-11-29T16:09:58.328Z,55.19
2022-11-29T16:12:25.879Z,55.83
2022-11-29T16:37:29.446Z,53.52
2022-11-29T16:40:02.092Z,54.45
2022-11-29T16:42:34.780Z,52.90
2022-11-29T16:47:48.320Z,50.16
2022-11-29T16:53:12.860Z,57.00
2022-11-29T16:55:47.585Z,57.57
2022-11-29T16:58:15.536Z,58.44
2022-11-29T17:00:46.261Z,57.43
2022-11-29T17:03:18.198Z,59.90
2022-11-29T17:05:45.874Z,61.96
2022-11-29T17:08:21.723Z,63.23
2022-11-29T17:10:51.768Z,63.54
2022-11-29T17:13:21.497Z,64.17
2022-11-29T17:15:50.490Z,64.25
2022-11-29T17:18:17.683Z,63.97
2022-11-29T17:23:30.462Z,64.45
2022-11-29T17:25:59.456Z,64.47
2022-11-29T17:28:35.627Z,64.87
2022-11-29T17:34:13.841Z,64.34
2022-11-29T17:42:19.700Z,64.96
2022-11-29T17:47:39.491Z,64.84
2022-11-29T17:50:13.758Z,65.51
2022-11-29T17:55:32.524Z,65.49
2022-11-29T17:58:06.099Z,65.92
2022-11-29T18:00:32.960Z,66.87
2022-11-29T18:03:04.422Z,66.98
2022-11-29T18:05:34.717Z,66.88
2022-11-29T18:08:10.523Z,67.25
2022-11-29T18:10:37.757Z,67.33
2022-11-29T18:13:06.328Z,67.71
2022-11-29T18:15:36.924Z,67.69
2022-11-29T18:18:04.112Z,67.90
2022-11-29T18:20:33.383Z,67.87
2022-11-29T18:23:05.030Z,67.61
2022-11-29T18:25:40.114Z,67.06
2022-11-29T18:28:07.749Z,66.89
2022-11-29T18:30:36.544Z,67.03
2022-11-29T18:33:06.599Z,66.74
2022-11-29T18:38:16.281Z,66.51
2022-11-29T18:40:45.148Z,66.26
2022-11-29T18:43:12.077Z,65.80
2022-11-29T18:51:32.568Z,65.44
2022-11-29T18:56:43.673Z,66.53
2022-11-29T18:59:12.091Z,66.51
2022-11-29T19:01:52.320Z,66.52
2022-11-29T19:04:20.196Z,67.16
2022-11-29T19:06:47.600Z,67.28
2022-11-29T19:09:20.491Z,67.24
2022-11-29T19:11:58.363Z,67.75
2022-11-29T19:14:26.711Z,68.18
2022-11-29T19:16:59.479Z,68.43
2022-11-29T19:19:38.591Z,68.28
2022-11-29T19:22:05.476Z,68.10
2022-11-29T19:30:15.357Z,67.66
2022-11-29T19:35:32.666Z,67.31
2022-11-29T19:38:05.610Z,67.38
2022-11-29T19:40:32.732Z,67.24
2022-11-29T19:43:03.915Z,66.52
2022-11-29T19:45:32.341Z,66.38
2022-11-29T19:48:02.787Z,66.82
2022-11-29T19:50:33.252Z,66.18
2022-11-29T19:53:04.655Z,67.00
2022-11-29T19:55:32.150Z,66.84
2022-11-29T19:58:09.942Z,66.60
2022-11-29T20:00:39.826Z,66.55
2022-11-29T20:03:14.584Z,66.32
2022-11-29T20:08:39.015Z,66.67
2022-11-29T20:11:10.041Z,66.34
2022-11-29T20:16:20.381Z,64.91
2022-11-29T20:18:50.728Z,65.12
2022-11-29T20:21:18.747Z,64.31
2022-11-29T20:23:48.692Z,65.55
2022-11-29T20:26:25.821Z,64.66
2022-11-29T20:28:55.803Z,65.78
2022-11-29T20:31:33.291Z,66.38
2022-11-29T20:34:01.957Z,65.49
2022-11-29T20:36:29.686Z,65.59
2022-11-29T20:39:09.791Z,65.91
2022-11-29T20:41:38.523Z,64.92
2022-11-29T20:44:07.450Z,64.99
2022-11-29T20:46:35.822Z,65.67
2022-11-29T20:49:06.987Z,66.34
2022-11-29T20:51:38.073Z,66.31
2022-11-29T20:54:10.036Z,65.78
2022-11-29T20:59:23.473Z,66.62
2022-11-29T21:01:59.014Z,65.36
2022-11-29T21:04:27.371Z,63.04
2022-11-29T21:07:00.910Z,63.09
2022-11-29T21:09:28.617Z,63.57
2022-11-29T21:11:56.188Z,64.48
2022-11-29T21:14:24.986Z,64.87
2022-11-29T21:16:56.104Z,65.68
2022-11-29T21:19:27.108Z,67.42
2022-11-29T21:21:54.559Z,66.84
2022-11-29T21:24:21.900Z,66.92
2022-11-29T21:26:49.328Z,64.34
2022-11-29T21:29:16.375Z,65.68
2022-11-29T21:31:43.982Z,64.75
2022-11-29T21:34:10.966Z,66.01
2022-11-29T21:36:38.432Z,65.56
2022-11-29T21:39:09.022Z,65.80
2022-11-29T21:41:36.149Z,64.46
2022-11-29T21:44:07.829Z,65.56
2022-11-29T21:46:35.879Z,63.32
2022-11-29T21:49:03.797Z,64.50
2022-11-29T21:51:30.918Z,64.95
2022-11-29T21:54:02.922Z,64.04
2022-11-29T21:56:34.771Z,62.08
2022-11-29T21:59:12.685Z,63.09
2022-11-29T22:01:40.097Z,60.51
2022-11-29T22:04:07.616Z,61.79
2022-11-29T22:06:34.618Z,60.45
2022-11-29T22:09:02.281Z,59.01
2022-11-29T22:11:34.673Z,57.05
2022-11-29T22:14:03.562Z,57.41
2022-11-29T22:16:31.154Z,55.99
2022-11-29T22:19:01.261Z,56.18
2022-11-29T22:21:28.041Z,55.06
2022-11-29T22:23:56.162Z,57.28
2022-11-29T22:26:22.908Z,58.53
2022-11-29T22:28:49.827Z,57.85
2022-11-29T22:31:20.206Z,57.54
2022-11-29T22:36:39.521Z,55.60
2022-11-29T22:39:06.623Z,55.71
2022-11-29T22:41:34.956Z,55.42
2022-11-29T22:44:03.213Z,55.24
2022-11-29T22:46:41.526Z,54.91
2022-11-29T22:49:08.623Z,54.60
2022-11-29T22:51:35.784Z,55.87
2022-11-29T22:54:02.768Z,57.35
2022-11-29T22:56:31.338Z,56.83
2022-11-29T22:59:07.881Z,56.33
2022-11-29T23:01:36.638Z,57.73
2022-11-29T23:04:07.769Z,58.28
2022-11-29T23:06:35.374Z,60.02
2022-11-29T23:09:04.062Z,59.88
2022-11-29T23:11:30.565Z,58.10
2022-11-29T23:14:01.052Z,59.30
2022-11-29T23:16:27.942Z,61.87
2022-11-29T23:18:55.569Z,62.14
2022-11-29T23:21:22.321Z,62.74
2022-11-29T23:23:54.538Z,62.86
2022-11-29T23:26:24.916Z,65.46
2022-11-29T23:28:52.439Z,65.58
2022-11-29T23:31:19.554Z,65.29
2022-11-29T23:33:47.109Z,65.39
2022-11-29T23:36:15.013Z,65.33
2022-11-29T23:38:42.514Z,63.75
2022-11-29T23:41:10.508Z,62.13
2022-11-29T23:43:38.855Z,64.28
2022-11-29T23:46:11.959Z,64.45
2022-11-29T23:48:38.665Z,64.79
2022-11-29T23:51:06.335Z,64.34
2022-11-29T23:53:33.843Z,64.92
2022-11-29T23:56:01.385Z,64.89
2022-11-29T23:58:29.216Z,64.06
